sensor_id;sensor_type;location;lat;lon;timestamp;P1;durP1;ratioP1;P2;durP2;ratioP2
63050;SDS011;49136;47.416;19.402;2023-04-24T00:02:14;15.70;;;7.28;;
63050;SDS011;49136;47.416;19.402;2023-04-24T00:04:41;12.48;;;7.32;;
63050;SDS011;49136;47.416;19.402;2023-04-24T00:07:09;21.92;;;7.22;;
63050;SDS011;49136;47.416;19.402;2023-04-24T00:09:35;12.93;;;7.03;;
63050;SDS011;49136;47.416;19.402;2023-04-24T00:12:00;15.93;;;7.07;;
63050;SDS011;49136;47.416;19.402;2023-04-24T00:14:28;12.63;;;6.95;;
63050;SDS011;49136;47.416;19.402;2023-04-24T00:16:54;16.88;;;7.93;;
63050;SDS011;49136;47.416;19.402;2023-04-24T00:19:19;12.07;;;6.55;;
63050;SDS011;49136;47.416;19.402;2023-04-24T00:21:46;16.00;;;7.47;;
63050;SDS011;49136;47.416;19.402;2023-04-24T00:24:14;16.42;;;6.57;;
63050;SDS011;49136;47.416;19.402;2023-04-24T00:26:40;26.98;;;8.50;;
63050;SDS011;49136;47.416;19.402;2023-04-24T00:29:06;24.27;;;7.82;;
63050;SDS011;49136;47.416;19.402;2023-04-24T00:31:31;18.05;;;8.25;;
63050;SDS011;49136;47.416;19.402;2023-04-24T00:33:59;21.77;;;9.85;;
63050;SDS011;49136;47.416;19.402;2023-04-24T00:36:25;21.40;;;10.07;;
63050;SDS011;49136;47.416;19.402;2023-04-24T00:38:52;18.90;;;8.32;;
63050;SDS011;49136;47.416;19.402;2023-04-24T00:41:18;19.10;;;9.18;;
63050;SDS011;49136;47.416;19.402;2023-04-24T00:43:44;24.65;;;8.27;;
63050;SDS011;49136;47.416;19.402;2023-04-24T00:46:09;20.13;;;9.00;;
63050;SDS011;49136;47.416;19.402;2023-04-24T00:48:36;15.52;;;8.85;;
63050;SDS011;49136;47.416;19.402;2023-04-24T00:51:03;23.08;;;10.55;;
63050;SDS011;49136;47.416;19.402;2023-04-24T00:53:29;22.08;;;9.85;;
63050;SDS011;49136;47.416;19.402;2023-04-24T00:55:54;19.45;;;8.45;;
63050;SDS011;49136;47.416;19.402;2023-04-24T00:58:21;18.88;;;9.77;;
63050;SDS011;49136;47.416;19.402;2023-04-24T01:00:46;27.35;;;9.25;;
63050;SDS011;49136;47.416;19.402;2023-04-24T01:03:15;15.77;;;8.88;;
63050;SDS011;49136;47.416;19.402;2023-04-24T01:05:41;18.65;;;8.60;;
63050;SDS011;49136;47.416;19.402;2023-04-24T01:08:07;20.08;;;9.10;;
63050;SDS011;49136;47.416;19.402;2023-04-24T01:10:33;24.25;;;10.20;;
63050;SDS011;49136;47.416;19.402;2023-04-24T01:13:01;21.83;;;9.30;;
63050;SDS011;49136;47.416;19.402;2023-04-24T01:15:27;12.43;;;7.97;;
63050;SDS011;49136;47.416;19.402;2023-04-24T01:17:52;23.40;;;8.20;;
63050;SDS011;49136;47.416;19.402;2023-04-24T01:20:17;14.35;;;6.80;;
63050;SDS011;49136;47.416;19.402;2023-04-24T01:22:44;19.17;;;8.27;;
63050;SDS011;49136;47.416;19.402;2023-04-24T01:25:09;19.50;;;6.78;;
63050;SDS011;49136;47.416;19.402;2023-04-24T01:27:35;12.52;;;6.75;;
63050;SDS011;49136;47.416;19.402;2023-04-24T01:30:00;14.23;;;8.23;;
63050;SDS011;49136;47.416;19.402;2023-04-24T01:32:26;16.25;;;7.10;;
63050;SDS011;49136;47.416;19.402;2023-04-24T01:34:52;13.63;;;6.78;;
63050;SDS011;49136;47.416;19.402;2023-04-24T01:37:20;19.30;;;8.35;;
63050;SDS011;49136;47.416;19.402;2023-04-24T01:39:45;16.67;;;7.70;;
63050;SDS011;49136;47.416;19.402;2023-04-24T01:42:11;15.60;;;8.63;;
63050;SDS011;49136;47.416;19.402;2023-04-24T01:44:37;14.25;;;7.25;;
63050;SDS011;49136;47.416;19.402;2023-04-24T01:47:03;15.15;;;7.68;;
63050;SDS011;49136;47.416;19.402;2023-04-24T01:49:29;17.77;;;7.35;;
63050;SDS011;49136;47.416;19.402;2023-04-24T01:51:54;13.65;;;7.00;;
63050;SDS011;49136;47.416;19.402;2023-04-24T01:54:20;28.17;;;8.93;;
63050;SDS011;49136;47.416;19.402;2023-04-24T01:56:45;27.70;;;8.02;;
63050;SDS011;49136;47.416;19.402;2023-04-24T01:59:11;15.23;;;6.90;;
63050;SDS011;49136;47.416;19.402;2023-04-24T02:01:37;15.32;;;7.30;;
63050;SDS011;49136;47.416;19.402;2023-04-24T02:04:03;11.07;;;6.68;;
63050;SDS011;49136;47.416;19.402;2023-04-24T02:06:30;14.75;;;8.00;;
63050;SDS011;49136;47.416;19.402;2023-04-24T02:08:56;17.17;;;8.52;;
63050;SDS011;49136;47.416;19.402;2023-04-24T02:11:23;12.70;;;7.65;;
63050;SDS011;49136;47.416;19.402;2023-04-24T02:13:48;25.70;;;8.35;;
63050;SDS011;49136;47.416;19.402;2023-04-24T02:16:15;16.80;;;9.13;;
63050;SDS011;49136;47.416;19.402;2023-04-24T02:18:40;20.60;;;8.93;;
63050;SDS011;49136;47.416;19.402;2023-04-24T02:21:06;14.45;;;8.13;;
63050;SDS011;49136;47.416;19.402;2023-04-24T02:23:31;13.07;;;8.05;;
63050;SDS011;49136;47.416;19.402;2023-04-24T02:25:57;22.25;;;9.07;;
63050;SDS011;49136;47.416;19.402;2023-04-24T02:28:22;17.73;;;8.98;;
63050;SDS011;49136;47.416;19.402;2023-04-24T02:30:48;17.63;;;8.50;;
63050;SDS011;49136;47.416;19.402;2023-04-24T02:33:13;24.17;;;9.55;;
63050;SDS011;49136;47.416;19.402;2023-04-24T02:35:38;19.70;;;8.70;;
63050;SDS011;49136;47.416;19.402;2023-04-24T02:38:04;19.30;;;9.27;;
63050;SDS011;49136;47.416;19.402;2023-04-24T02:40:30;21.95;;;10.77;;
63050;SDS011;49136;47.416;19.402;2023-04-24T02:42:55;21.13;;;10.57;;
63050;SDS011;49136;47.416;19.402;2023-04-24T02:45:21;24.05;;;10.90;;
63050;SDS011;49136;47.416;19.402;2023-04-24T02:47:46;24.13;;;10.60;;
63050;SDS011;49136;47.416;19.402;2023-04-24T02:50:11;35.58;;;12.90;;
63050;SDS011;49136;47.416;19.402;2023-04-24T02:52:37;26.00;;;11.63;;
63050;SDS011;49136;47.416;19.402;2023-04-24T02:55:02;26.17;;;12.10;;
63050;SDS011;49136;47.416;19.402;2023-04-24T02:57:28;26.92;;;11.95;;
63050;SDS011;49136;47.416;19.402;2023-04-24T02:59:53;30.02;;;12.65;;
63050;SDS011;49136;47.416;19.402;2023-04-24T03:02:19;24.15;;;10.85;;
63050;SDS011;49136;47.416;19.402;2023-04-24T03:04:45;27.52;;;11.93;;
63050;SDS011;49136;47.416;19.402;2023-04-24T03:07:12;21.67;;;10.23;;
63050;SDS011;49136;47.416;19.402;2023-04-24T03:09:38;24.20;;;11.35;;
63050;SDS011;49136;47.416;19.402;2023-04-24T03:12:04;26.83;;;11.73;;
63050;SDS011;49136;47.416;19.402;2023-04-24T03:14:29;33.00;;;12.68;;
63050;SDS011;49136;47.416;19.402;2023-04-24T03:16:56;24.02;;;11.50;;
63050;SDS011;49136;47.416;19.402;2023-04-24T03:19:21;25.30;;;10.30;;
63050;SDS011;49136;47.416;19.402;2023-04-24T03:21:47;28.80;;;11.13;;
63050;SDS011;49136;47.416;19.402;2023-04-24T03:24:13;39.53;;;12.95;;
63050;SDS011;49136;47.416;19.402;2023-04-24T03:26:38;26.20;;;11.60;;
63050;SDS011;49136;47.416;19.402;2023-04-24T03:29:04;26.92;;;10.93;;
63050;SDS011;49136;47.416;19.402;2023-04-24T03:31:29;25.02;;;11.70;;
63050;SDS011;49136;47.416;19.402;2023-04-24T03:33:55;27.02;;;12.73;;
63050;SDS011;49136;47.416;19.402;2023-04-24T03:36:20;25.80;;;11.73;;
63050;SDS011;49136;47.416;19.402;2023-04-24T03:38:46;33.85;;;14.98;;
63050;SDS011;49136;47.416;19.402;2023-04-24T03:41:11;27.00;;;12.18;;
63050;SDS011;49136;47.416;19.402;2023-04-24T03:43:37;24.80;;;12.40;;
63050;SDS011;49136;47.416;19.402;2023-04-24T03:46:03;28.15;;;11.93;;
63050;SDS011;49136;47.416;19.402;2023-04-24T03:48:28;31.63;;;12.55;;
63050;SDS011;49136;47.416;19.402;2023-04-24T03:50:54;30.63;;;12.18;;
63050;SDS011;49136;47.416;19.402;2023-04-24T03:53:19;24.77;;;11.07;;
63050;SDS011;49136;47.416;19.402;2023-04-24T03:55:45;28.35;;;12.60;;
63050;SDS011;49136;47.416;19.402;2023-04-24T03:58:11;27.80;;;12.20;;
63050;SDS011;49136;47.416;19.402;2023-04-24T04:00:36;24.00;;;10.60;;
63050;SDS011;49136;47.416;19.402;2023-04-24T04:03:02;21.92;;;11.68;;
63050;SDS011;49136;47.416;19.402;2023-04-24T04:05:28;34.40;;;12.23;;
63050;SDS011;49136;47.416;19.402;2023-04-24T04:07:54;26.33;;;9.98;;
63050;SDS011;49136;47.416;19.402;2023-04-24T04:10:19;26.58;;;12.73;;
63050;SDS011;49136;47.416;19.402;2023-04-24T04:12:45;22.08;;;10.85;;
63050;SDS011;49136;47.416;19.402;2023-04-24T04:15:10;25.35;;;11.90;;
63050;SDS011;49136;47.416;19.402;2023-04-24T04:17:36;30.38;;;11.95;;
63050;SDS011;49136;47.416;19.402;2023-04-24T04:20:03;28.40;;;12.27;;
63050;SDS011;49136;47.416;19.402;2023-04-24T04:22:32;24.67;;;11.23;;
63050;SDS011;49136;47.416;19.402;2023-04-24T04:24:58;23.35;;;12.13;;
63050;SDS011;49136;47.416;19.402;2023-04-24T04:27:23;25.63;;;12.02;;
63050;SDS011;49136;47.416;19.402;2023-04-24T04:29:48;28.77;;;12.63;;
63050;SDS011;49136;47.416;19.402;2023-04-24T04:32:15;22.10;;;11.98;;
63050;SDS011;49136;47.416;19.402;2023-04-24T04:34:40;24.13;;;10.68;;
63050;SDS011;49136;47.416;19.402;2023-04-24T04:37:06;32.47;;;11.10;;
63050;SDS011;49136;47.416;19.402;2023-04-24T04:39:32;21.15;;;10.65;;
63050;SDS011;49136;47.416;19.402;2023-04-24T04:41:57;28.40;;;13.05;;
63050;SDS011;49136;47.416;19.402;2023-04-24T04:44:23;27.15;;;11.80;;
63050;SDS011;49136;47.416;19.402;2023-04-24T04:46:49;39.20;;;12.32;;
63050;SDS011;49136;47.416;19.402;2023-04-24T04:49:15;24.13;;;11.15;;
63050;SDS011;49136;47.416;19.402;2023-04-24T04:51:41;25.55;;;12.38;;
63050;SDS011;49136;47.416;19.402;2023-04-24T04:54:07;25.65;;;12.30;;
63050;SDS011;49136;47.416;19.402;2023-04-24T04:56:32;24.98;;;10.93;;
63050;SDS011;49136;47.416;19.402;2023-04-24T04:58:58;26.05;;;11.25;;
63050;SDS011;49136;47.416;19.402;2023-04-24T05:01:24;38.53;;;17.02;;
63050;SDS011;49136;47.416;19.402;2023-04-24T05:03:52;28.05;;;12.15;;
63050;SDS011;49136;47.416;19.402;2023-04-24T05:06:18;30.08;;;12.70;;
63050;SDS011;49136;47.416;19.402;2023-04-24T05:08:43;25.17;;;12.10;;
63050;SDS011;49136;47.416;19.402;2023-04-24T05:11:08;28.02;;;12.27;;
63050;SDS011;49136;47.416;19.402;2023-04-24T05:13:34;23.52;;;11.65;;
63050;SDS011;49136;47.416;19.402;2023-04-24T05:16:00;27.65;;;12.88;;
63050;SDS011;49136;47.416;19.402;2023-04-24T05:18:26;29.95;;;10.57;;
63050;SDS011;49136;47.416;19.402;2023-04-24T05:20:51;25.38;;;11.00;;
63050;SDS011;49136;47.416;19.402;2023-04-24T05:23:16;22.17;;;10.88;;
63050;SDS011;49136;47.416;19.402;2023-04-24T05:25:42;27.90;;;12.68;;
63050;SDS011;49136;47.416;19.402;2023-04-24T05:28:07;30.95;;;12.23;;
63050;SDS011;49136;47.416;19.402;2023-04-24T05:30:33;44.58;;;15.45;;
63050;SDS011;49136;47.416;19.402;2023-04-24T05:32:58;26.35;;;11.82;;
63050;SDS011;49136;47.416;19.402;2023-04-24T05:35:24;31.90;;;12.77;;
63050;SDS011;49136;47.416;19.402;2023-04-24T05:37:50;28.55;;;13.43;;
63050;SDS011;49136;47.416;19.402;2023-04-24T05:40:15;31.00;;;13.13;;
63050;SDS011;49136;47.416;19.402;2023-04-24T05:42:40;28.40;;;13.48;;
63050;SDS011;49136;47.416;19.402;2023-04-24T05:45:06;31.92;;;13.77;;
63050;SDS011;49136;47.416;19.402;2023-04-24T05:47:32;34.63;;;12.30;;
63050;SDS011;49136;47.416;19.402;2023-04-24T05:49:58;33.45;;;11.95;;
63050;SDS011;49136;47.416;19.402;2023-04-24T05:52:23;36.08;;;13.60;;
63050;SDS011;49136;47.416;19.402;2023-04-24T05:54:48;29.55;;;12.98;;
63050;SDS011;49136;47.416;19.402;2023-04-24T05:57:14;33.33;;;12.48;;
63050;SDS011;49136;47.416;19.402;2023-04-24T05:59:40;29.40;;;12.30;;
63050;SDS011;49136;47.416;19.402;2023-04-24T06:02:06;29.45;;;11.68;;
63050;SDS011;49136;47.416;19.402;2023-04-24T06:04:32;29.60;;;12.90;;
63050;SDS011;49136;47.416;19.402;2023-04-24T06:06:58;24.50;;;11.77;;
63050;SDS011;49136;47.416;19.402;2023-04-24T06:09:23;30.52;;;12.55;;
63050;SDS011;49136;47.416;19.402;2023-04-24T06:11:50;32.83;;;12.40;;
63050;SDS011;49136;47.416;19.402;2023-04-24T06:14:18;29.80;;;12.98;;
63050;SDS011;49136;47.416;19.402;2023-04-24T06:16:44;33.97;;;13.63;;
63050;SDS011;49136;47.416;19.402;2023-04-24T06:19:10;27.63;;;12.32;;
63050;SDS011;49136;47.416;19.402;2023-04-24T06:21:35;39.35;;;13.45;;
63050;SDS011;49136;47.416;19.402;2023-04-24T06:24:01;30.27;;;13.35;;
63050;SDS011;49136;47.416;19.402;2023-04-24T06:26:27;27.50;;;13.00;;
63050;SDS011;49136;47.416;19.402;2023-04-24T06:28:52;29.75;;;10.90;;
63050;SDS011;49136;47.416;19.402;2023-04-24T06:31:21;24.83;;;11.40;;
63050;SDS011;49136;47.416;19.402;2023-04-24T06:33:47;30.05;;;11.02;;
63050;SDS011;49136;47.416;19.402;2023-04-24T06:36:13;22.95;;;10.05;;
63050;SDS011;49136;47.416;19.402;2023-04-24T06:38:38;26.70;;;9.13;;
63050;SDS011;49136;47.416;19.402;2023-04-24T06:41:04;21.67;;;10.30;;
63050;SDS011;49136;47.416;19.402;2023-04-24T06:43:30;22.55;;;10.68;;
63050;SDS011;49136;47.416;19.402;2023-04-24T06:45:59;24.38;;;11.13;;
63050;SDS011;49136;47.416;19.402;2023-04-24T06:48:25;28.65;;;10.77;;
63050;SDS011;49136;47.416;19.402;2023-04-24T06:50:51;26.88;;;11.77;;
63050;SDS011;49136;47.416;19.402;2023-04-24T06:53:17;21.02;;;11.00;;
63050;SDS011;49136;47.416;19.402;2023-04-24T06:55:42;24.98;;;12.20;;
63050;SDS011;49136;47.416;19.402;2023-04-24T06:58:11;25.75;;;11.25;;
63050;SDS011;49136;47.416;19.402;2023-04-24T07:00:37;29.85;;;12.10;;
63050;SDS011;49136;47.416;19.402;2023-04-24T07:03:03;25.42;;;12.02;;
63050;SDS011;49136;47.416;19.402;2023-04-24T07:05:30;26.30;;;12.75;;
63050;SDS011;49136;47.416;19.402;2023-04-24T07:07:56;25.08;;;12.35;;
63050;SDS011;49136;47.416;19.402;2023-04-24T07:10:23;26.65;;;12.98;;
63050;SDS011;49136;47.416;19.402;2023-04-24T07:12:49;27.92;;;12.73;;
63050;SDS011;49136;47.416;19.402;2023-04-24T07:15:15;30.40;;;12.35;;
63050;SDS011;49136;47.416;19.402;2023-04-24T07:17:41;25.27;;;12.63;;
63050;SDS011;49136;47.416;19.402;2023-04-24T07:20:10;28.45;;;11.13;;
63050;SDS011;49136;47.416;19.402;2023-04-24T07:22:39;27.27;;;10.95;;
63050;SDS011;49136;47.416;19.402;2023-04-24T07:25:05;21.50;;;11.50;;
63050;SDS011;49136;47.416;19.402;2023-04-24T07:27:31;33.00;;;12.98;;
63050;SDS011;49136;47.416;19.402;2023-04-24T07:29:57;26.27;;;12.45;;
63050;SDS011;49136;47.416;19.402;2023-04-24T07:32:23;21.77;;;11.52;;
63050;SDS011;49136;47.416;19.402;2023-04-24T07:34:48;28.17;;;12.55;;
63050;SDS011;49136;47.416;19.402;2023-04-24T07:37:14;35.20;;;12.30;;
63050;SDS011;49136;47.416;19.402;2023-04-24T07:39:40;20.95;;;10.40;;
63050;SDS011;49136;47.416;19.402;2023-04-24T07:42:05;25.63;;;12.80;;
63050;SDS011;49136;47.416;19.402;2023-04-24T07:44:31;26.30;;;12.98;;
63050;SDS011;49136;47.416;19.402;2023-04-24T07:46:57;27.73;;;13.45;;
63050;SDS011;49136;47.416;19.402;2023-04-24T07:49:22;23.15;;;10.48;;
63050;SDS011;49136;47.416;19.402;2023-04-24T07:51:48;25.80;;;11.63;;
63050;SDS011;49136;47.416;19.402;2023-04-24T07:54:14;24.88;;;11.05;;
63050;SDS011;49136;47.416;19.402;2023-04-24T07:56:40;24.85;;;12.50;;
63050;SDS011;49136;47.416;19.402;2023-04-24T07:59:07;20.17;;;11.57;;
63050;SDS011;49136;47.416;19.402;2023-04-24T08:01:35;25.90;;;12.15;;
63050;SDS011;49136;47.416;19.402;2023-04-24T08:04:00;34.88;;;12.57;;
63050;SDS011;49136;47.416;19.402;2023-04-24T08:06:26;28.77;;;13.70;;
63050;SDS011;49136;47.416;19.402;2023-04-24T08:08:55;24.92;;;12.27;;
63050;SDS011;49136;47.416;19.402;2023-04-24T08:11:21;23.27;;;11.73;;
63050;SDS011;49136;47.416;19.402;2023-04-24T08:13:46;22.45;;;10.82;;
63050;SDS011;49136;47.416;19.402;2023-04-24T08:16:12;25.65;;;12.18;;
63050;SDS011;49136;47.416;19.402;2023-04-24T08:18:37;26.48;;;12.55;;
63050;SDS011;49136;47.416;19.402;2023-04-24T08:21:03;29.38;;;12.48;;
63050;SDS011;49136;47.416;19.402;2023-04-24T08:23:28;24.17;;;12.45;;
63050;SDS011;49136;47.416;19.402;2023-04-24T08:25:54;29.17;;;12.55;;
63050;SDS011;49136;47.416;19.402;2023-04-24T08:28:20;23.73;;;11.40;;
63050;SDS011;49136;47.416;19.402;2023-04-24T08:30:46;31.50;;;11.73;;
63050;SDS011;49136;47.416;19.402;2023-04-24T08:33:20;28.08;;;12.38;;
63050;SDS011;49136;47.416;19.402;2023-04-24T08:35:46;25.75;;;12.40;;
63050;SDS011;49136;47.416;19.402;2023-04-24T08:38:12;24.98;;;11.88;;
63050;SDS011;49136;47.416;19.402;2023-04-24T08:40:37;30.70;;;13.15;;
63050;SDS011;49136;47.416;19.402;2023-04-24T08:43:04;32.20;;;12.38;;
63050;SDS011;49136;47.416;19.402;2023-04-24T08:45:30;26.80;;;12.27;;
63050;SDS011;49136;47.416;19.402;2023-04-24T08:47:55;33.75;;;10.95;;
63050;SDS011;49136;47.416;19.402;2023-04-24T08:50:23;24.48;;;12.73;;
63050;SDS011;49136;47.416;19.402;2023-04-24T08:52:50;21.83;;;11.50;;
63050;SDS011;49136;47.416;19.402;2023-04-24T08:55:18;34.10;;;12.75;;
63050;SDS011;49136;47.416;19.402;2023-04-24T08:57:45;20.17;;;11.48;;
63050;SDS011;49136;47.416;19.402;2023-04-24T09:00:15;22.15;;;12.02;;
63050;SDS011;49136;47.416;19.402;2023-04-24T09:02:41;29.92;;;12.98;;
63050;SDS011;49136;47.416;19.402;2023-04-24T09:05:08;22.80;;;11.40;;
63050;SDS011;49136;47.416;19.402;2023-04-24T09:07:35;26.33;;;12.48;;
63050;SDS011;49136;47.416;19.402;2023-04-24T09:10:04;19.08;;;10.98;;
63050;SDS011;49136;47.416;19.402;2023-04-24T09:12:31;27.17;;;13.70;;
63050;SDS011;49136;47.416;19.402;2023-04-24T09:14:58;21.38;;;11.60;;
63050;SDS011;49136;47.416;19.402;2023-04-24T09:17:24;22.15;;;12.00;;
63050;SDS011;49136;47.416;19.402;2023-04-24T09:19:52;22.80;;;11.20;;
63050;SDS011;49136;47.416;19.402;2023-04-24T09:22:17;21.02;;;10.35;;
63050;SDS011;49136;47.416;19.402;2023-04-24T09:24:43;20.00;;;10.20;;
63050;SDS011;49136;47.416;19.402;2023-04-24T09:27:10;20.27;;;11.07;;
63050;SDS011;49136;47.416;19.402;2023-04-24T09:29:37;18.80;;;10.38;;
63050;SDS011;49136;47.416;19.402;2023-04-24T09:32:17;24.23;;;10.75;;
63050;SDS011;49136;47.416;19.402;2023-04-24T09:34:46;17.63;;;9.60;;
63050;SDS011;49136;47.416;19.402;2023-04-24T09:37:28;19.30;;;10.07;;
63050;SDS011;49136;47.416;19.402;2023-04-24T09:42:40;20.95;;;11.18;;
63050;SDS011;49136;47.416;19.402;2023-04-24T09:45:09;19.80;;;9.90;;
63050;SDS011;49136;47.416;19.402;2023-04-24T09:47:38;22.30;;;9.45;;
63050;SDS011;49136;47.416;19.402;2023-04-24T09:50:16;20.65;;;10.13;;
63050;SDS011;49136;47.416;19.402;2023-04-24T09:52:46;18.40;;;9.73;;
63050;SDS011;49136;47.416;19.402;2023-04-24T09:55:20;19.08;;;9.90;;
63050;SDS011;49136;47.416;19.402;2023-04-24T09:57:47;18.88;;;9.60;;
63050;SDS011;49136;47.416;19.402;2023-04-24T10:00:18;22.48;;;9.20;;
63050;SDS011;49136;47.416;19.402;2023-04-24T10:02:44;19.73;;;8.73;;
63050;SDS011;49136;47.416;19.402;2023-04-24T10:05:11;15.48;;;7.95;;
63050;SDS011;49136;47.416;19.402;2023-04-24T10:07:37;15.15;;;7.25;;
63050;SDS011;49136;47.416;19.402;2023-04-24T10:10:03;11.63;;;6.70;;
63050;SDS011;49136;47.416;19.402;2023-04-24T10:12:29;15.40;;;6.32;;
63050;SDS011;49136;47.416;19.402;2023-04-24T10:14:55;14.43;;;5.78;;
63050;SDS011;49136;47.416;19.402;2023-04-24T10:17:22;10.48;;;5.35;;
63050;SDS011;49136;47.416;19.402;2023-04-24T10:19:49;7.72;;;5.97;;
63050;SDS011;49136;47.416;19.402;2023-04-24T10:22:15;14.40;;;5.93;;
63050;SDS011;49136;47.416;19.402;2023-04-24T10:24:41;12.52;;;6.10;;
63050;SDS011;49136;47.416;19.402;2023-04-24T10:27:08;9.77;;;6.43;;
63050;SDS011;49136;47.416;19.402;2023-04-24T10:29:34;13.75;;;6.93;;
63050;SDS011;49136;47.416;19.402;2023-04-24T10:32:01;9.55;;;5.03;;
63050;SDS011;49136;47.416;19.402;2023-04-24T10:34:26;8.35;;;5.32;;
63050;SDS011;49136;47.416;19.402;2023-04-24T10:36:53;11.52;;;5.68;;
63050;SDS011;49136;47.416;19.402;2023-04-24T10:39:21;18.73;;;5.90;;
63050;SDS011;49136;47.416;19.402;2023-04-24T10:41:48;9.95;;;5.35;;
63050;SDS011;49136;47.416;19.402;2023-04-24T10:44:14;10.07;;;6.20;;
63050;SDS011;49136;47.416;19.402;2023-04-24T10:46:46;9.88;;;5.28;;
63050;SDS011;49136;47.416;19.402;2023-04-24T10:49:27;12.43;;;6.13;;
63050;SDS011;49136;47.416;19.402;2023-04-24T10:51:54;11.35;;;5.50;;
63050;SDS011;49136;47.416;19.402;2023-04-24T10:54:35;11.27;;;5.97;;
63050;SDS011;49136;47.416;19.402;2023-04-24T10:59:43;12.20;;;6.30;;
63050;SDS011;49136;47.416;19.402;2023-04-24T11:02:09;12.57;;;6.50;;
63050;SDS011;49136;47.416;19.402;2023-04-24T11:04:35;11.35;;;6.00;;
63050;SDS011;49136;47.416;19.402;2023-04-24T11:07:02;11.07;;;6.78;;
63050;SDS011;49136;47.416;19.402;2023-04-24T11:09:30;12.55;;;6.38;;
63050;SDS011;49136;47.416;19.402;2023-04-24T11:12:05;10.82;;;6.20;;
63050;SDS011;49136;47.416;19.402;2023-04-24T11:17:30;9.55;;;5.15;;
63050;SDS011;49136;47.416;19.402;2023-04-24T11:20:08;10.93;;;5.40;;
63050;SDS011;49136;47.416;19.402;2023-04-24T11:22:36;12.82;;;5.53;;
63050;SDS011;49136;47.416;19.402;2023-04-24T11:25:04;8.73;;;5.15;;
63050;SDS011;49136;47.416;19.402;2023-04-24T11:27:37;17.60;;;5.95;;
63050;SDS011;49136;47.416;19.402;2023-04-24T11:30:05;17.58;;;7.30;;
63050;SDS011;49136;47.416;19.402;2023-04-24T11:35:20;14.23;;;6.55;;
63050;SDS011;49136;47.416;19.402;2023-04-24T11:37:50;14.38;;;7.30;;
63050;SDS011;49136;47.416;19.402;2023-04-24T11:40:18;17.48;;;6.38;;
63050;SDS011;49136;47.416;19.402;2023-04-24T11:42:49;12.23;;;6.68;;
63050;SDS011;49136;47.416;19.402;2023-04-24T11:45:16;13.73;;;6.75;;
63050;SDS011;49136;47.416;19.402;2023-04-24T11:47:49;12.98;;;7.20;;
63050;SDS011;49136;47.416;19.402;2023-04-24T11:50:16;14.30;;;6.93;;
63050;SDS011;49136;47.416;19.402;2023-04-24T11:52:44;11.82;;;6.47;;
63050;SDS011;49136;47.416;19.402;2023-04-24T11:57:38;10.93;;;5.30;;
63050;SDS011;49136;47.416;19.402;2023-04-24T12:00:04;14.10;;;5.15;;
63050;SDS011;49136;47.416;19.402;2023-04-24T12:02:30;7.93;;;4.65;;
63050;SDS011;49136;47.416;19.402;2023-04-24T12:04:56;9.57;;;5.00;;
63050;SDS011;49136;47.416;19.402;2023-04-24T12:07:22;10.73;;;5.07;;
63050;SDS011;49136;47.416;19.402;2023-04-24T12:09:58;8.43;;;4.85;;
63050;SDS011;49136;47.416;19.402;2023-04-24T12:12:25;13.13;;;5.93;;
63050;SDS011;49136;47.416;19.402;2023-04-24T12:15:01;11.10;;;5.38;;
63050;SDS011;49136;47.416;19.402;2023-04-24T12:17:31;8.95;;;5.35;;
63050;SDS011;49136;47.416;19.402;2023-04-24T12:20:02;15.30;;;5.95;;
63050;SDS011;49136;47.416;19.402;2023-04-24T12:22:46;11.60;;;5.97;;
63050;SDS011;49136;47.416;19.402;2023-04-24T12:25:14;17.10;;;5.95;;
63050;SDS011;49136;47.416;19.402;2023-04-24T12:27:40;11.68;;;6.13;;
63050;SDS011;49136;47.416;19.402;2023-04-24T12:30:12;9.15;;;4.68;;
63050;SDS011;49136;47.416;19.402;2023-04-24T12:32:43;8.77;;;4.75;;
63050;SDS011;49136;47.416;19.402;2023-04-24T12:35:18;10.48;;;5.53;;
63050;SDS011;49136;47.416;19.402;2023-04-24T12:37:46;11.75;;;5.15;;
63050;SDS011;49136;47.416;19.402;2023-04-24T12:40:12;11.48;;;4.60;;
63050;SDS011;49136;47.416;19.402;2023-04-24T12:42:42;7.82;;;4.70;;
63050;SDS011;49136;47.416;19.402;2023-04-24T12:45:12;8.18;;;3.00;;
63050;SDS011;49136;47.416;19.402;2023-04-24T12:47:38;6.63;;;4.35;;
63050;SDS011;49136;47.416;19.402;2023-04-24T12:50:05;8.65;;;3.97;;
63050;SDS011;49136;47.416;19.402;2023-04-24T12:52:31;5.70;;;3.63;;
63050;SDS011;49136;47.416;19.402;2023-04-24T12:54:57;6.43;;;3.60;;
63050;SDS011;49136;47.416;19.402;2023-04-24T12:57:25;10.95;;;3.45;;
63050;SDS011;49136;47.416;19.402;2023-04-24T12:59:55;6.80;;;3.85;;
63050;SDS011;49136;47.416;19.402;2023-04-24T13:02:25;6.13;;;2.70;;
63050;SDS011;49136;47.416;19.402;2023-04-24T13:04:52;8.75;;;3.70;;
63050;SDS011;49136;47.416;19.402;2023-04-24T13:07:18;7.00;;;3.72;;
63050;SDS011;49136;47.416;19.402;2023-04-24T13:09:44;9.20;;;3.67;;
63050;SDS011;49136;47.416;19.402;2023-04-24T13:12:10;7.18;;;3.90;;
63050;SDS011;49136;47.416;19.402;2023-04-24T13:14:37;8.95;;;4.55;;
63050;SDS011;49136;47.416;19.402;2023-04-24T13:17:03;7.55;;;3.85;;
63050;SDS011;49136;47.416;19.402;2023-04-24T13:19:34;8.85;;;4.70;;
63050;SDS011;49136;47.416;19.402;2023-04-24T13:22:10;5.80;;;3.97;;
63050;SDS011;49136;47.416;19.402;2023-04-24T13:24:36;7.32;;;3.85;;
63050;SDS011;49136;47.416;19.402;2023-04-24T13:27:02;7.43;;;3.60;;
63050;SDS011;49136;47.416;19.402;2023-04-24T13:29:28;6.15;;;4.05;;
63050;SDS011;49136;47.416;19.402;2023-04-24T13:31:54;9.98;;;4.82;;
63050;SDS011;49136;47.416;19.402;2023-04-24T13:34:20;7.70;;;4.30;;
63050;SDS011;49136;47.416;19.402;2023-04-24T13:36:46;10.00;;;4.13;;
63050;SDS011;49136;47.416;19.402;2023-04-24T13:39:11;10.88;;;3.55;;
63050;SDS011;49136;47.416;19.402;2023-04-24T13:41:37;7.63;;;3.55;;
63050;SDS011;49136;47.416;19.402;2023-04-24T13:44:03;9.90;;;3.97;;
63050;SDS011;49136;47.416;19.402;2023-04-24T13:46:29;7.60;;;3.95;;
63050;SDS011;49136;47.416;19.402;2023-04-24T13:48:55;11.80;;;3.92;;
63050;SDS011;49136;47.416;19.402;2023-04-24T13:51:21;6.97;;;4.13;;
63050;SDS011;49136;47.416;19.402;2023-04-24T13:53:47;7.15;;;3.53;;
63050;SDS011;49136;47.416;19.402;2023-04-24T13:56:13;7.10;;;4.07;;
63050;SDS011;49136;47.416;19.402;2023-04-24T13:58:39;7.90;;;3.53;;
63050;SDS011;49136;47.416;19.402;2023-04-24T14:01:04;11.45;;;4.45;;
63050;SDS011;49136;47.416;19.402;2023-04-24T14:03:30;7.65;;;3.65;;
63050;SDS011;49136;47.416;19.402;2023-04-24T14:05:55;7.60;;;4.15;;
63050;SDS011;49136;47.416;19.402;2023-04-24T14:08:21;9.60;;;4.53;;
63050;SDS011;49136;47.416;19.402;2023-04-24T14:10:47;11.02;;;5.20;;
63050;SDS011;49136;47.416;19.402;2023-04-24T14:13:12;10.70;;;4.78;;
63050;SDS011;49136;47.416;19.402;2023-04-24T14:15:38;10.43;;;4.68;;
63050;SDS011;49136;47.416;19.402;2023-04-24T14:18:03;8.70;;;4.10;;
63050;SDS011;49136;47.416;19.402;2023-04-24T14:20:29;7.38;;;4.40;;
63050;SDS011;49136;47.416;19.402;2023-04-24T14:22:56;12.38;;;5.50;;
63050;SDS011;49136;47.416;19.402;2023-04-24T14:25:24;10.43;;;5.43;;
63050;SDS011;49136;47.416;19.402;2023-04-24T14:27:49;8.85;;;4.80;;